createdAt,value
2022-09-20T00:02:19.006Z,9.15
2022-09-20T00:04:47.851Z,8.48
2022-09-20T00:07:14.221Z,9.35
2022-09-20T00:09:40.535Z,5.70
2022-09-20T00:12:07.449Z,5.05
2022-09-20T00:14:35.321Z,6.82
2022-09-20T00:17:01.665Z,8.82
2022-09-20T00:19:28.074Z,7.50
2022-09-20T00:21:54.460Z,11.82
2022-09-20T00:24:20.799Z,10.32
2022-09-20T00:26:47.359Z,11.13
2022-09-20T00:29:13.896Z,11.88
2022-09-20T00:31:41.622Z,10.50
2022-09-20T00:34:10.242Z,8.52
2022-09-20T00:36:36.559Z,7.90
2022-09-20T00:39:03.297Z,13.85
2022-09-20T00:41:32.607Z,9.10
2022-09-20T00:43:59.182Z,8.25
2022-09-20T00:46:29.503Z,7.90
2022-09-20T00:49:05.492Z,9.32
2022-09-20T00:51:36.244Z,10.77
2022-09-20T00:54:05.538Z,7.68
2022-09-20T00:56:36.074Z,10.02
2022-09-20T00:59:09.591Z,10.65
2022-09-20T01:01:36.515Z,11.13
2022-09-20T01:04:04.639Z,9.35
2022-09-20T01:06:33.060Z,6.53
2022-09-20T01:09:02.848Z,9.13
2022-09-20T01:11:30.622Z,9.95
2022-09-20T01:13:57.420Z,11.85
2022-09-20T01:16:25.993Z,12.65
2022-09-20T01:18:52.951Z,9.73
2022-09-20T01:21:21.398Z,8.07
2022-09-20T01:23:56.631Z,4.75
2022-09-20T01:26:58.851Z,8.48
2022-09-20T01:29:39.837Z,7.40
2022-09-20T01:32:12.486Z,7.70
2022-09-20T01:34:45.684Z,10.77
2022-09-20T01:37:19.491Z,8.20
2022-09-20T01:39:53.949Z,6.95
2022-09-20T01:42:26.266Z,10.20
2022-09-20T01:45:02.672Z,6.53
2022-09-20T01:47:35.879Z,13.75
2022-09-20T01:50:12.055Z,7.30
2022-09-20T01:53:12.327Z,11.50
2022-09-20T01:56:15.282Z,8.48
2022-09-20T01:59:24.882Z,11.38
2022-09-20T02:02:34.352Z,10.88
2022-09-20T02:05:47.804Z,7.80
2022-09-20T02:08:32.196Z,8.85
2022-09-20T02:11:12.922Z,9.20
2022-09-20T02:14:16.222Z,8.25
2022-09-20T02:16:51.882Z,11.55
2022-09-20T02:19:31.119Z,7.50
2022-09-20T02:22:10.486Z,7.25
2022-09-20T02:24:45.369Z,9.40
2022-09-20T02:27:22.755Z,10.10
2022-09-20T02:30:04.905Z,9.93
2022-09-20T02:32:53.098Z,10.63
2022-09-20T02:35:30.865Z,6.45
2022-09-20T02:38:10.786Z,8.15
2022-09-20T02:40:50.665Z,9.05
2022-09-20T02:43:27.644Z,10.00
2022-09-20T02:46:02.929Z,10.73
2022-09-20T02:48:37.160Z,9.82
2022-09-20T02:51:12.183Z,9.35
2022-09-20T02:53:47.029Z,7.53
2022-09-20T02:56:20.777Z,7.28
2022-09-20T03:01:32.237Z,8.57
2022-09-20T03:04:11.602Z,10.68
2022-09-20T03:06:49.397Z,9.90
2022-09-20T03:09:22.915Z,10.02
2022-09-20T03:12:00.556Z,7.93
2022-09-20T03:14:35.808Z,8.85
2022-09-20T03:17:22.207Z,6.93
2022-09-20T03:19:59.919Z,7.47
2022-09-20T03:22:40.331Z,9.25
2022-09-20T03:25:27.126Z,9.32
2022-09-20T03:28:08.440Z,12.65
2022-09-20T03:30:46.069Z,9.85
2022-09-20T03:33:21.648Z,12.90
2022-09-20T03:36:15.206Z,12.55
2022-09-20T03:39:01.591Z,12.63
2022-09-20T03:41:52.867Z,14.05
2022-09-20T03:44:35.024Z,10.00
2022-09-20T03:47:14.397Z,14.68
2022-09-20T03:50:07.392Z,16.98
2022-09-20T03:52:57.317Z,20.50
2022-09-20T03:55:44.584Z,9.23
2022-09-20T03:58:28.670Z,12.45
2022-09-20T04:01:11.548Z,9.50
2022-09-20T04:03:49.290Z,7.53
2022-09-20T04:06:38.185Z,7.82
2022-09-20T04:09:29.108Z,15.40
2022-09-20T04:12:05.810Z,11.43
2022-09-20T04:14:39.924Z,11.13
2022-09-20T04:17:22.700Z,9.60
2022-09-20T04:19:57.778Z,11.90
2022-09-20T04:22:28.626Z,14.45
2022-09-20T04:25:00.542Z,11.38
2022-09-20T04:27:33.410Z,13.50
2022-09-20T04:30:03.018Z,14.13
2022-09-20T04:32:35.551Z,12.23
2022-09-20T04:35:05.848Z,16.33
2022-09-20T04:37:36.283Z,18.30
2022-09-20T04:40:14.421Z,12.50
2022-09-20T04:43:13.046Z,15.88
2022-09-20T04:46:10.885Z,11.95
2022-09-20T04:49:08.668Z,13.30
2022-09-20T04:51:53.092Z,15.70
2022-09-20T04:54:49.257Z,12.68
2022-09-20T04:57:46.638Z,13.05
2022-09-20T05:00:18.414Z,10.23
2022-09-20T05:03:19.792Z,16.02
2022-09-20T05:06:11.615Z,15.65
2022-09-20T05:08:58.720Z,12.98
2022-09-20T05:11:41.543Z,13.95
2022-09-20T05:14:28.331Z,14.77
2022-09-20T05:17:12.017Z,10.23
2022-09-20T05:19:51.276Z,12.27
2022-09-20T05:22:43.002Z,16.27
2022-09-20T05:25:36.292Z,10.85
2022-09-20T05:28:10.252Z,12.50
2022-09-20T05:30:42.109Z,12.95
2022-09-20T05:33:19.871Z,19.70
2022-09-20T05:35:56.119Z,14.30
2022-09-20T05:38:30.601Z,15.45
2022-09-20T05:41:08.801Z,14.10
2022-09-20T05:43:42.767Z,14.38
2022-09-20T05:46:17.225Z,15.32
2022-09-20T05:48:56.711Z,8.98
2022-09-20T05:51:35.471Z,14.23
2022-09-20T05:54:24.210Z,13.68
2022-09-20T05:57:00.222Z,16.88
2022-09-20T05:59:40.046Z,13.70
2022-09-20T06:02:22.503Z,11.52
2022-09-20T06:04:59.996Z,16.83
2022-09-20T06:07:40.668Z,11.40
2022-09-20T06:10:37.428Z,13.10
2022-09-20T06:13:14.926Z,11.55
2022-09-20T06:15:48.412Z,15.38
2022-09-20T06:18:23.448Z,12.13
2022-09-20T06:21:00.023Z,14.20
2022-09-20T06:23:26.863Z,12.57
2022-09-20T06:25:57.396Z,11.40
2022-09-20T06:28:28.338Z,11.30
2022-09-20T06:30:56.344Z,17.70
2022-09-20T06:33:24.069Z,10.13
2022-09-20T06:35:59.637Z,12.65
2022-09-20T06:38:45.438Z,19.13
2022-09-20T06:41:12.047Z,16.15
2022-09-20T06:43:38.503Z,14.45
2022-09-20T06:46:05.237Z,16.75
2022-09-20T06:48:31.643Z,20.25
2022-09-20T06:51:00.858Z,18.33
2022-09-20T06:53:30.300Z,12.32
2022-09-20T06:55:57.220Z,13.80
2022-09-20T06:58:23.573Z,12.15
2022-09-20T07:00:49.994Z,10.68
2022-09-20T07:03:16.458Z,14.38
2022-09-20T07:05:42.793Z,13.43
2022-09-20T07:08:10.469Z,17.10
2022-09-20T07:10:36.822Z,13.30
2022-09-20T07:13:03.243Z,11.88
2022-09-20T07:15:31.874Z,13.15
2022-09-20T07:17:58.619Z,10.95
2022-09-20T07:20:25.097Z,10.38
2022-09-20T07:22:51.626Z,12.45
2022-09-20T07:25:20.020Z,10.55
2022-09-20T07:27:47.043Z,15.05
2022-09-20T07:30:14.325Z,11.00
2022-09-20T07:32:40.836Z,12.30
2022-09-20T07:35:08.259Z,12.55
2022-09-20T07:37:37.135Z,9.50
2022-09-20T07:40:05.703Z,13.98
2022-09-20T07:42:33.400Z,10.82
2022-09-20T07:44:59.778Z,13.10
2022-09-20T07:47:26.349Z,13.82
2022-09-20T07:49:52.703Z,11.70
2022-09-20T07:52:19.172Z,11.88
2022-09-20T07:54:45.552Z,15.30
2022-09-20T07:57:11.992Z,6.93
2022-09-20T07:59:39.690Z,11.93
2022-09-20T08:02:06.433Z,14.32
2022-09-20T08:04:32.842Z,11.95
2022-09-20T08:07:00.290Z,9.93
2022-09-20T08:09:26.660Z,8.98
2022-09-20T08:11:53.184Z,10.75
2022-09-20T08:14:19.883Z,13.57
2022-09-20T08:16:51.011Z,7.47
2022-09-20T08:19:19.564Z,9.18
2022-09-20T08:21:46.574Z,6.30
2022-09-20T08:24:13.239Z,8.77
2022-09-20T08:26:39.597Z,10.38
2022-09-20T08:29:06.342Z,7.10
2022-09-20T08:31:34.401Z,9.50
2022-09-20T08:34:03.565Z,5.70
2022-09-20T08:36:36.093Z,7.55
2022-09-20T08:41:54.424Z,10.70
2022-09-20T08:44:25.313Z,8.10
2022-09-20T08:47:02.669Z,5.70
2022-09-20T08:49:30.727Z,10.07
2022-09-20T08:51:58.737Z,9.40
2022-09-20T08:54:31.848Z,8.23
2022-09-20T08:59:27.339Z,7.78
2022-09-20T09:01:53.955Z,5.63
2022-09-20T09:04:23.812Z,8.30
2022-09-20T09:06:52.282Z,9.00
2022-09-20T09:09:21.112Z,9.98
2022-09-20T09:11:47.858Z,6.80
2022-09-20T09:14:24.930Z,10.07
2022-09-20T09:16:51.358Z,8.43
2022-09-20T09:19:33.218Z,9.45
2022-09-20T09:22:03.730Z,10.15
2022-09-20T09:24:30.250Z,11.27
2022-09-20T09:27:07.045Z,9.23
2022-09-20T09:29:35.014Z,8.82
2022-09-20T09:32:20.534Z,11.52
2022-09-20T09:34:46.920Z,11.15
2022-09-20T09:37:28.421Z,9.02
2022-09-20T09:40:13.866Z,11.65
2022-09-20T09:42:48.980Z,9.18
2022-09-20T09:45:29.897Z,10.52
2022-09-20T09:47:58.991Z,9.82
2022-09-20T09:50:27.393Z,7.22
2022-09-20T09:53:00.412Z,8.13
2022-09-20T09:55:42.114Z,10.75
2022-09-20T09:58:19.244Z,6.57
2022-09-20T10:00:46.844Z,11.82
2022-09-20T10:03:28.611Z,6.82
2022-09-20T10:06:07.279Z,4.78
2022-09-20T10:08:45.264Z,6.50
2022-09-20T10:11:26.422Z,7.20
2022-09-20T10:14:07.507Z,5.72
2022-09-20T10:16:58.373Z,5.88
2022-09-20T10:19:41.955Z,9.68
2022-09-20T10:22:17.147Z,13.43
2022-09-20T10:24:55.559Z,6.95
2022-09-20T10:27:35.626Z,7.70
2022-09-20T10:30:10.304Z,6.20
2022-09-20T10:32:48.844Z,5.22
2022-09-20T10:35:36.956Z,4.18
2022-09-20T10:38:12.995Z,6.03
2022-09-20T10:40:54.615Z,7.32
2022-09-20T10:43:36.728Z,3.67
2022-09-20T10:46:31.390Z,7.15
2022-09-20T10:49:03.664Z,5.57
2022-09-20T10:51:43.737Z,5.18
2022-09-20T10:54:24.784Z,4.45
2022-09-20T10:57:11.716Z,2.65
2022-09-20T10:59:45.216Z,4.43
2022-09-20T11:02:33.185Z,4.30
2022-09-20T11:05:23.938Z,4.85
2022-09-20T11:07:59.196Z,6.70
2022-09-20T11:10:30.875Z,3.33
2022-09-20T11:13:01.772Z,4.15
2022-09-20T11:15:34.256Z,3.45
2022-09-20T11:18:08.101Z,5.72
2022-09-20T11:20:41.215Z,4.40
2022-09-20T11:23:14.039Z,6.20
2022-09-20T11:25:45.339Z,5.20
2022-09-20T11:28:19.649Z,3.53
2022-09-20T11:30:55.392Z,4.97
2022-09-20T11:33:26.688Z,5.90
2022-09-20T11:35:57.867Z,5.55
2022-09-20T11:38:31.827Z,4.22
2022-09-20T11:41:02.319Z,6.95
2022-09-20T11:43:30.882Z,3.75
2022-09-20T11:46:02.447Z,2.78
2022-09-20T11:48:33.764Z,5.38
2022-09-20T11:51:24.498Z,4.85
2022-09-20T11:54:04.498Z,5.53
2022-09-20T11:56:32.920Z,5.07
2022-09-20T11:59:02.555Z,3.10
2022-09-20T12:01:31.471Z,5.00
2022-09-20T12:04:21.023Z,5.03
2022-09-20T12:06:47.495Z,4.10
2022-09-20T12:09:24.671Z,3.85
2022-09-20T12:11:51.304Z,5.22
2022-09-20T12:14:22.478Z,4.70
2022-09-20T12:16:50.198Z,5.10
2022-09-20T12:19:37.116Z,10.65
2022-09-20T12:22:26.283Z,4.68
2022-09-20T12:25:28.470Z,4.22
2022-09-20T12:27:58.295Z,4.80
2022-09-20T12:30:26.310Z,5.35
2022-09-20T12:32:57.448Z,4.43
2022-09-20T12:35:58.292Z,5.00
2022-09-20T12:38:31.548Z,3.67
2022-09-20T12:41:00.155Z,3.97
2022-09-20T12:43:28.859Z,3.85
2022-09-20T12:46:02.889Z,5.00
2022-09-20T12:48:36.462Z,5.18
2022-09-20T12:51:05.890Z,3.13
2022-09-20T12:53:32.324Z,3.70
2022-09-20T12:56:06.197Z,3.83
2022-09-20T12:58:38.628Z,4.20
2022-09-20T13:01:33.067Z,6.20
2022-09-20T13:04:36.967Z,6.03
2022-09-20T13:07:49.098Z,6.60
2022-09-20T13:10:28.171Z,5.03
2022-09-20T13:13:01.480Z,5.97
2022-09-20T13:15:28.662Z,3.53
2022-09-20T13:17:59.011Z,6.68
2022-09-20T13:20:29.034Z,2.05
2022-09-20T13:23:00.134Z,3.40
2022-09-20T13:25:27.599Z,7.13
2022-09-20T13:28:03.057Z,2.90
2022-09-20T13:30:30.052Z,3.58
2022-09-20T13:33:15.345Z,4.35
2022-09-20T13:35:44.087Z,4.47
2022-09-20T13:38:10.576Z,4.95
2022-09-20T13:40:40.790Z,3.78
2022-09-20T13:43:24.095Z,4.05
2022-09-20T13:48:24.244Z,4.57
2022-09-20T13:50:53.600Z,5.50
2022-09-20T13:53:40.219Z,3.40
2022-09-20T13:56:10.432Z,3.55
2022-09-20T13:58:37.790Z,4.22
2022-09-20T14:01:07.371Z,5.68
2022-09-20T14:03:36.172Z,7.57
2022-09-20T14:06:07.322Z,3.58
2022-09-20T14:08:38.894Z,3.05
2022-09-20T14:11:08.154Z,3.28
2022-09-20T14:13:39.619Z,3.45
2022-09-20T14:16:06.989Z,3.05
2022-09-20T14:18:35.662Z,5.55
2022-09-20T14:21:02.625Z,6.03
2022-09-20T14:23:29.998Z,5.53
2022-09-20T14:26:07.333Z,4.45
2022-09-20T14:28:33.884Z,3.70
2022-09-20T14:31:06.790Z,3.60
2022-09-20T14:33:40.408Z,4.38
2022-09-20T14:38:38.979Z,4.40
2022-09-20T14:41:05.959Z,3.55
2022-09-20T14:43:34.351Z,3.00
2022-09-20T14:46:02.964Z,4.97
2022-09-20T14:48:36.690Z,3.13
2022-09-20T14:51:21.791Z,2.55
2022-09-20T14:53:50.175Z,5.38
2022-09-20T14:56:25.327Z,5.35
2022-09-20T14:59:06.210Z,5.03
2022-09-20T15:01:33.672Z,3.53
2022-09-20T15:04:07.863Z,3.05
2022-09-20T15:06:35.336Z,3.92
2022-09-20T15:09:01.730Z,5.68
2022-09-20T15:11:28.452Z,2.47
2022-09-20T15:13:54.852Z,3.47
2022-09-20T15:16:21.300Z,3.90
2022-09-20T15:18:47.759Z,2.83
2022-09-20T15:21:15.411Z,3.63
2022-09-20T15:23:41.743Z,3.00
2022-09-20T15:26:11.088Z,2.55
2022-09-20T15:28:37.790Z,2.42
2022-09-20T15:31:04.552Z,2.25
2022-09-20T15:33:31.795Z,1.98
2022-09-20T15:35:58.468Z,1.35
2022-09-20T15:38:26.332Z,2.15
2022-09-20T15:40:53.460Z,2.47
2022-09-20T15:43:21.385Z,0.95
2022-09-20T15:45:50.218Z,3.10
2022-09-20T15:48:17.213Z,3.72
2022-09-20T15:50:43.589Z,4.80
2022-09-20T15:53:09.936Z,2.25
2022-09-20T15:55:37.616Z,3.53
2022-09-20T15:58:03.942Z,1.08
2022-09-20T16:00:30.287Z,5.85
2022-09-20T16:02:56.663Z,3.10
2022-09-20T16:05:23.035Z,5.63
2022-09-20T16:07:49.363Z,2.08
2022-09-20T16:10:15.832Z,3.25
2022-09-20T16:12:43.483Z,4.13
2022-09-20T16:15:10.838Z,2.25
2022-09-20T16:17:37.316Z,3.17
2022-09-20T16:20:04.044Z,1.00
2022-09-20T16:22:30.788Z,2.40
2022-09-20T16:24:57.128Z,2.30
2022-09-20T16:27:23.468Z,3.80
2022-09-20T16:29:51.134Z,3.40
2022-09-20T16:32:17.475Z,2.40
2022-09-20T16:34:43.822Z,4.80
2022-09-20T16:37:12.404Z,1.92
2022-09-20T16:39:38.785Z,3.72
2022-09-20T16:42:06.610Z,3.50
2022-09-20T16:44:34.821Z,4.97
2022-09-20T16:47:03.059Z,3.55
2022-09-20T16:49:29.417Z,3.53
2022-09-20T16:51:55.898Z,3.28
2022-09-20T16:54:22.280Z,3.88
2022-09-20T16:56:50.414Z,4.40
2022-09-20T16:59:18.974Z,6.57
2022-09-20T17:01:45.435Z,2.92
2022-09-20T17:04:13.245Z,2.47
2022-09-20T17:06:40.043Z,3.20
2022-09-20T17:09:07.321Z,2.22
2022-09-20T17:11:36.602Z,4.15
2022-09-20T17:14:03.854Z,2.92
2022-09-20T17:16:43.447Z,2.78
2022-09-20T17:19:11.665Z,3.78
2022-09-20T17:21:41.061Z,8.38
2022-09-20T17:24:07.569Z,3.58
2022-09-20T17:26:35.487Z,6.57
2022-09-20T17:29:03.486Z,4.32
2022-09-20T17:31:31.588Z,4.80
2022-09-20T17:33:58.502Z,6.38
2022-09-20T17:36:25.041Z,4.68
2022-09-20T17:38:55.747Z,5.80
2022-09-20T17:41:23.215Z,4.10
2022-09-20T17:43:53.538Z,5.10
2022-09-20T17:46:21.669Z,4.88
2022-09-20T17:48:50.863Z,3.58
2022-09-20T17:51:19.028Z,5.38
2022-09-20T17:53:46.327Z,5.30
2022-09-20T17:56:14.651Z,5.13
2022-09-20T17:58:42.053Z,9.48
2022-09-20T18:01:12.812Z,8.38
2022-09-20T18:03:41.667Z,5.80
2022-09-20T18:06:13.013Z,5.60
2022-09-20T18:08:39.827Z,6.03
2022-09-20T18:11:06.543Z,6.05
2022-09-20T18:13:34.501Z,4.88
2022-09-20T18:16:01.156Z,6.65
2022-09-20T18:18:28.129Z,6.05
2022-09-20T18:20:54.619Z,4.88
2022-09-20T18:23:21.055Z,8.50
2022-09-20T18:25:47.394Z,4.82
2022-09-20T18:28:14.152Z,5.03
2022-09-20T18:30:41.820Z,6.05
2022-09-20T18:33:08.161Z,6.25
2022-09-20T18:35:34.522Z,4.97
2022-09-20T18:38:00.860Z,6.45
2022-09-20T18:40:27.295Z,5.93
2022-09-20T18:42:53.666Z,7.13
2022-09-20T18:45:20.022Z,5.07
2022-09-20T18:47:47.684Z,7.35
2022-09-20T18:50:14.249Z,5.22
2022-09-20T18:52:40.589Z,4.90
2022-09-20T18:55:08.035Z,3.22
2022-09-20T18:57:34.851Z,12.52
2022-09-20T19:00:03.953Z,9.75
2022-09-20T19:02:53.536Z,9.30
2022-09-20T19:05:31.836Z,5.78
2022-09-20T19:08:16.243Z,6.30
2022-09-20T19:10:49.119Z,7.63
2022-09-20T19:13:30.005Z,6.32
2022-09-20T19:16:11.585Z,9.10
2022-09-20T19:19:02.848Z,8.38
2022-09-20T19:21:40.157Z,8.02
2022-09-20T19:24:22.075Z,10.15
2022-09-20T19:26:48.992Z,9.15
2022-09-20T19:29:19.150Z,9.65
2022-09-20T19:31:48.139Z,8.23
2022-09-20T19:34:19.673Z,10.90
2022-09-20T19:37:00.011Z,9.02
2022-09-20T19:39:36.717Z,10.23
2022-09-20T19:42:13.404Z,11.90
2022-09-20T19:44:51.162Z,11.15
2022-09-20T19:47:29.460Z,10.90
2022-09-20T19:50:07.417Z,12.30
2022-09-20T19:52:34.245Z,9.80
2022-09-20T19:55:01.201Z,11.10
2022-09-20T19:57:35.095Z,9.48
2022-09-20T20:00:05.087Z,8.07
2022-09-20T20:02:34.488Z,6.78
2022-09-20T20:05:03.370Z,10.27
2022-09-20T20:07:37.222Z,9.35
2022-09-20T20:10:13.633Z,8.93
2022-09-20T20:12:48.259Z,10.77
2022-09-20T20:15:36.459Z,11.45
2022-09-20T20:18:14.500Z,5.90
2022-09-20T20:20:48.024Z,7.00
2022-09-20T20:23:38.245Z,6.72
2022-09-20T20:26:09.263Z,9.27
2022-09-20T20:28:36.094Z,8.95
2022-09-20T20:31:02.981Z,6.70
2022-09-20T20:33:30.283Z,6.35
2022-09-20T20:35:59.623Z,8.73
2022-09-20T20:38:27.110Z,6.65
2022-09-20T20:41:00.549Z,9.20
2022-09-20T20:43:26.867Z,8.82
2022-09-20T20:45:53.195Z,9.23
2022-09-20T20:48:19.547Z,6.65
2022-09-20T20:50:45.916Z,8.13
2022-09-20T20:53:13.691Z,6.78
2022-09-20T20:55:40.083Z,6.95
2022-09-20T20:58:06.576Z,9.15
2022-09-20T21:00:33.272Z,7.63
2022-09-20T21:03:00.788Z,7.35
2022-09-20T21:05:27.847Z,6.80
2022-09-20T21:07:54.827Z,8.57
2022-09-20T21:10:22.552Z,6.72
2022-09-20T21:12:49.091Z,8.32
2022-09-20T21:15:16.243Z,9.68
2022-09-20T21:17:42.591Z,8.68
2022-09-20T21:20:09.960Z,9.25
2022-09-20T21:22:36.301Z,16.23
2022-09-20T21:25:02.723Z,9.18
2022-09-20T21:27:30.395Z,10.80
2022-09-20T21:29:56.725Z,7.13
2022-09-20T21:32:23.181Z,6.93
2022-09-20T21:34:49.507Z,12.98
2022-09-20T21:37:15.857Z,7.70
2022-09-20T21:39:42.387Z,7.68
2022-09-20T21:42:08.722Z,8.90
2022-09-20T21:44:36.447Z,6.22
2022-09-20T21:47:02.790Z,9.05
2022-09-20T21:49:29.134Z,10.02
2022-09-20T21:51:55.461Z,6.07
2022-09-20T21:54:21.840Z,5.95
2022-09-20T21:56:48.203Z,8.13
2022-09-20T21:59:14.542Z,6.47
2022-09-20T22:01:42.243Z,7.35
2022-09-20T22:04:10.096Z,4.95
2022-09-20T22:06:38.343Z,8.57
2022-09-20T22:09:06.788Z,5.93
2022-09-20T22:11:35.577Z,7.72
2022-09-20T22:14:02.072Z,6.75
2022-09-20T22:16:30.431Z,6.32
2022-09-20T22:18:59.124Z,7.68
2022-09-20T22:21:27.786Z,4.15
2022-09-20T22:23:56.082Z,9.23
2022-09-20T22:26:22.527Z,6.10
2022-09-20T22:28:48.884Z,8.20
2022-09-20T22:31:17.979Z,6.57
2022-09-20T22:33:47.394Z,8.38
2022-09-20T22:36:16.782Z,5.57
2022-09-20T22:38:44.588Z,8.55
2022-09-20T22:41:11.477Z,6.60
2022-09-20T22:43:37.855Z,8.23
2022-09-20T22:46:05.709Z,7.90
2022-09-20T22:48:32.434Z,6.55
2022-09-20T22:50:59.757Z,5.07
2022-09-20T22:53:29.332Z,6.53
2022-09-20T22:56:02.280Z,7.93
2022-09-20T22:58:29.918Z,5.72
2022-09-20T23:01:02.269Z,6.65
2022-09-20T23:03:28.752Z,7.05
2022-09-20T23:05:55.148Z,6.97
2022-09-20T23:08:21.480Z,7.63
2022-09-20T23:10:49.234Z,6.95
2022-09-20T23:13:15.619Z,6.63
2022-09-20T23:15:41.952Z,7.80
2022-09-20T23:18:08.310Z,7.80
2022-09-20T23:20:34.677Z,9.45
2022-09-20T23:23:01.047Z,7.35
2022-09-20T23:25:27.379Z,6.45
2022-09-20T23:27:55.360Z,6.85
2022-09-20T23:30:21.959Z,7.88
2022-09-20T23:32:48.278Z,7.60
2022-09-20T23:35:14.666Z,7.32
2022-09-20T23:37:41.011Z,7.97
2022-09-20T23:40:08.882Z,9.07
2022-09-20T23:42:35.432Z,7.75
2022-09-20T23:45:03.332Z,9.38
2022-09-20T23:47:29.704Z,7.72
2022-09-20T23:49:56.292Z,7.35
2022-09-20T23:52:22.634Z,5.43
2022-09-20T23:54:48.976Z,7.70
2022-09-20T23:57:15.340Z,10.18
2022-09-20T23:59:41.715Z,8.65
